Time,TemperatureF,DewpointF,PressureIn,WindDirection,WindDirectionDegrees,WindSpeedMPH,WindSpeedGustMPH,Humidity,HourlyPrecipIn,Conditions,Clouds,dailyrainin,SoftwareType,DateUTC
2013-01-28 00:02:00,28.0,23.0,-100.00,SW,222,23.0,26.0,83,0.00,,,-99.99,,2013-01-28 07:02:00,
2013-01-28 00:11:00,27.0,23.0,-100.00,SW,222,21.0,24.0,84,0.00,,,-99.99,,2013-01-28 07:11:00,
2013-01-28 00:21:00,27.0,23.0,-100.00,SW,223,21.0,24.0,83,0.00,,,-99.99,,2013-01-28 07:21:00,
2013-01-28 00:31:00,27.0,23.0,-100.00,SW,223,21.0,24.0,83,0.00,,,-99.99,,2013-01-28 07:31:00,
2013-01-28 00:41:00,27.0,23.0,-100.00,SW,227,19.0,25.0,83,0.00,,,-99.99,,2013-01-28 07:41:00,
2013-01-28 00:52:00,27.0,23.0,-100.00,SW,230,20.0,23.0,83,0.00,,,-99.99,,2013-01-28 07:52:00,
2013-01-28 01:01:00,27.0,23.0,-100.00,SW,230,20.0,23.0,83,0.00,,,-99.99,,2013-01-28 08:01:00,
2013-01-28 01:11:00,27.0,22.0,-100.00,SW,229,19.0,24.0,82,0.00,,,-99.99,,2013-01-28 08:11:00,
2013-01-28 01:21:00,27.0,23.0,-100.00,SW,229,19.0,22.0,83,0.00,,,-99.99,,2013-01-28 08:21:00,
2013-01-28 01:31:00,27.0,23.0,-100.00,SW,229,19.0,22.0,83,0.00,,,-99.99,,2013-01-28 08:31:00,
2013-01-28 01:42:00,27.0,23.0,-100.00,SW,224,19.0,23.0,83,0.00,,,-99.99,,2013-01-28 08:42:00,
2013-01-28 01:52:00,27.0,22.0,-100.00,SW,232,20.0,23.0,83,0.00,,,-99.99,,2013-01-28 08:52:00,
2013-01-28 02:01:00,27.0,22.0,-100.00,SW,232,20.0,23.0,83,0.00,,,-99.99,,2013-01-28 09:01:00,
2013-01-28 02:11:00,27.0,22.0,-100.00,SW,233,20.0,23.0,83,0.00,,,-99.99,,2013-01-28 09:11:00,
2013-01-28 02:21:00,27.0,22.0,-100.00,SW,233,20.0,23.0,83,0.00,,,-99.99,,2013-01-28 09:21:00,
2013-01-28 02:31:00,27.0,22.0,-100.00,SW,233,20.0,23.0,83,0.00,,,-99.99,,2013-01-28 09:31:00,
2013-01-28 02:41:00,26.0,23.0,-100.00,SW,229,16.0,20.0,86,0.00,,,-99.99,,2013-01-28 09:41:00,
2013-01-28 02:52:00,26.0,22.0,-100.00,SW,227,12.0,14.0,86,0.00,,,-99.99,,2013-01-28 09:52:00,
2013-01-28 03:01:00,26.0,22.0,-100.00,SW,227,12.0,14.0,86,0.00,,,-99.99,,2013-01-28 10:01:00,
2013-01-28 03:11:00,26.0,22.0,-100.00,SW,215,16.0,18.0,87,0.00,,,-99.99,,2013-01-28 10:11:00,
2013-01-28 03:21:00,26.0,22.0,-100.00,SW,215,16.0,18.0,87,0.00,,,-99.99,,2013-01-28 10:21:00,
2013-01-28 03:31:00,26.0,22.0,-100.00,SW,215,16.0,18.0,87,0.00,,,-99.99,,2013-01-28 10:31:00,
2013-01-28 03:41:00,26.0,22.0,-100.00,SW,229,14.0,18.0,87,0.00,,,-99.99,,2013-01-28 10:41:00,
2013-01-28 03:52:00,26.0,23.0,-100.00,SW,222,11.0,16.0,87,0.00,,,-99.99,,2013-01-28 10:52:00,
2013-01-28 04:02:00,26.0,23.0,-100.00,SW,222,11.0,16.0,87,0.00,,,-99.99,,2013-01-28 11:02:00,
2013-01-28 04:11:00,26.0,23.0,-100.00,SSW,209,9.0,11.0,89,0.00,,,-99.99,,2013-01-28 11:11:00,
2013-01-28 04:21:00,26.0,23.0,-100.00,SSW,209,9.0,11.0,89,0.00,,,-99.99,,2013-01-28 11:21:00,
2013-01-28 04:32:00,26.0,23.0,-100.00,SSW,209,9.0,11.0,89,0.00,,,-99.99,,2013-01-28 11:32:00,
2013-01-28 04:42:00,25.0,23.0,-100.00,SW,223,4.0,6.0,91,0.00,,,-99.99,,2013-01-28 11:42:00,
2013-01-28 04:52:00,26.0,23.0,-100.00,SSW,210,5.0,6.0,89,0.00,,,-99.99,,2013-01-28 11:52:00,
2013-01-28 05:03:00,26.0,23.0,-100.00,SSW,210,5.0,6.0,89,0.00,,,-99.99,,2013-01-28 12:03:00,
2013-01-28 05:11:00,26.0,23.0,-100.00,SSW,202,4.0,5.0,89,0.00,,,-99.99,,2013-01-28 12:11:00,
2013-01-28 05:22:00,26.0,23.0,-100.00,SW,216,9.0,11.0,89,0.00,,,-99.99,,2013-01-28 12:22:00,
2013-01-28 05:32:00,26.0,23.0,-100.00,SW,216,9.0,11.0,89,0.00,,,-99.99,,2013-01-28 12:32:00,
2013-01-28 05:42:00,26.0,23.0,-100.00,SW,217,12.0,13.0,88,0.00,,,-99.99,,2013-01-28 12:42:00,
2013-01-28 05:52:00,26.0,23.0,-100.00,SW,216,12.0,14.0,87,0.00,,,-99.99,,2013-01-28 12:52:00,
2013-01-28 06:02:00,26.0,23.0,-100.00,SW,216,12.0,14.0,87,0.00,,,-99.99,,2013-01-28 13:02:00,
2013-01-28 06:11:00,26.0,23.0,-100.00,SW,216,11.0,14.0,88,0.00,,,-99.99,,2013-01-28 13:11:00,
2013-01-28 06:22:00,26.0,23.0,-100.00,SW,216,7.0,9.0,88,0.00,,,-99.99,,2013-01-28 13:22:00,
2013-01-28 06:32:00,26.0,23.0,-100.00,SW,216,7.0,9.0,88,0.00,,,-99.99,,2013-01-28 13:32:00,
2013-01-28 06:42:00,26.0,23.0,-100.00,SSW,210,8.0,11.0,88,0.00,,,-99.99,,2013-01-28 13:42:00,
2013-01-28 06:52:00,26.0,23.0,-100.00,SSW,210,8.0,11.0,88,0.00,,,-99.99,,2013-01-28 13:52:00,
2013-01-28 07:02:00,26.0,23.0,-100.00,SSW,210,8.0,11.0,88,0.00,,,-99.99,,2013-01-28 14:02:00,
2013-01-28 07:11:00,26.0,22.0,-100.00,SW,215,10.0,12.0,87,0.00,,,-99.99,,2013-01-28 14:11:00,
2013-01-28 07:22:00,26.0,23.0,-100.00,SSW,212,11.0,14.0,90,0.04,,,-99.99,,2013-01-28 14:22:00,
2013-01-28 07:32:00,26.0,23.0,-100.00,SSW,212,11.0,14.0,90,0.04,,,-99.99,,2013-01-28 14:32:00,
2013-01-28 07:42:00,25.0,24.0,-100.00,SW,215,10.0,13.0,93,0.20,,,-99.99,,2013-01-28 14:42:00,
2013-01-28 07:53:00,25.0,24.0,-100.00,SW,215,10.0,13.0,93,0.20,,,-99.99,,2013-01-28 14:53:00,
2013-01-28 08:02:00,25.0,24.0,-100.00,SW,215,10.0,13.0,93,0.20,,,-99.99,,2013-01-28 15:02:00,
2013-01-28 08:12:00,25.0,23.0,-100.00,SW,217,12.0,15.0,93,0.04,,,-99.99,,2013-01-28 15:12:00,
2013-01-28 08:23:00,25.0,23.0,-100.00,SW,216,13.0,16.0,91,0.00,,,-99.99,,2013-01-28 15:23:00,
2013-01-28 08:33:00,25.0,23.0,-100.00,SW,216,13.0,16.0,91,0.00,,,-99.99,,2013-01-28 15:33:00,
2013-01-28 08:42:00,25.0,23.0,-100.00,SW,227,11.0,12.0,92,0.12,,,-99.99,,2013-01-28 15:42:00,
2013-01-28 08:53:00,25.0,23.0,-100.00,WSW,246,10.0,12.0,95,0.04,,,-99.99,,2013-01-28 15:53:00,
2013-01-28 09:02:00,25.0,23.0,-100.00,WSW,246,10.0,12.0,95,0.04,,,-99.99,,2013-01-28 16:02:00,
2013-01-28 09:12:00,25.0,23.0,-100.00,WSW,246,10.0,12.0,95,0.04,,,-99.99,,2013-01-28 16:12:00,
2013-01-28 09:22:00,24.0,23.0,-100.00,SW,229,11.0,13.0,95,0.04,,,-99.99,,2013-01-28 16:22:00,
2013-01-28 09:32:00,24.0,23.0,-100.00,SW,229,11.0,13.0,95,0.04,,,-99.99,,2013-01-28 16:32:00,
2013-01-28 09:43:00,24.0,23.0,-100.00,SW,222,12.0,14.0,95,0.08,,,-99.99,,2013-01-28 16:43:00,
2013-01-28 09:53:00,24.0,23.0,-100.00,SW,222,12.0,14.0,95,0.08,,,-99.99,,2013-01-28 16:53:00,
2013-01-28 10:01:00,24.0,23.0,-100.00,SW,222,12.0,14.0,95,0.08,,,-99.99,,2013-01-28 17:01:00,
2013-01-28 10:11:00,24.0,24.0,-100.00,SW,230,11.0,13.0,97,0.12,,,-99.99,,2013-01-28 17:11:00,
2013-01-28 10:22:00,24.0,24.0,-100.00,SW,219,13.0,15.0,97,0.00,,,-99.99,,2013-01-28 17:22:00,
2013-01-28 10:32:00,24.0,24.0,-100.00,SW,219,13.0,15.0,97,0.00,,,-99.99,,2013-01-28 17:32:00,
2013-01-28 10:41:00,25.0,24.0,-100.00,SSW,212,13.0,15.0,97,0.28,,,-99.99,,2013-01-28 17:41:00,
2013-01-28 10:52:00,25.0,24.0,-100.00,SSW,212,11.0,13.0,96,0.04,,,-99.99,,2013-01-28 17:52:00,
2013-01-28 11:01:00,25.0,24.0,-100.00,SSW,212,11.0,13.0,96,0.04,,,-99.99,,2013-01-28 18:01:00,
2013-01-28 11:12:00,25.0,24.0,-100.00,SSW,212,11.0,13.0,96,0.04,,,-99.99,,2013-01-28 18:12:00,
2013-01-28 11:23:00,25.0,24.0,-100.00,SW,216,14.0,16.0,96,0.00,,,-99.99,,2013-01-28 18:23:00,
2013-01-28 11:33:00,25.0,24.0,-100.00,SW,216,14.0,16.0,96,0.00,,,-99.99,,2013-01-28 18:33:00,
2013-01-28 11:42:00,25.0,24.0,-100.00,SW,219,13.0,15.0,95,0.00,,,-99.99,,2013-01-28 18:42:00,
2013-01-28 11:52:00,25.0,23.0,-100.00,SW,233,9.0,13.0,94,0.00,,,-99.99,,2013-01-28 18:52:00,
2013-01-28 12:02:00,25.0,23.0,-100.00,SW,233,9.0,13.0,94,0.00,,,-99.99,,2013-01-28 19:02:00,
2013-01-28 12:12:00,26.0,22.0,-100.00,SW,220,15.0,17.0,87,0.00,,,-99.99,,2013-01-28 19:12:00,
2013-01-28 12:22:00,26.0,22.0,-100.00,SW,220,15.0,17.0,87,0.00,,,-99.99,,2013-01-28 19:22:00,
2013-01-28 12:30:00,27.0,24.0,-100.00,WSW,246,9.0,12.0,88,0.00,,,-99.99,,2013-01-28 19:30:00,
2013-01-28 12:32:00,26.0,22.0,-100.00,SW,220,15.0,17.0,87,0.00,,,-99.99,,2013-01-28 19:32:00,
2013-01-28 12:42:00,26.0,23.0,-100.00,SW,236,9.0,13.0,89,0.00,,,-99.99,,2013-01-28 19:42:00,
2013-01-28 12:52:00,27.0,24.0,-100.00,WSW,246,9.0,12.0,88,0.00,,,-99.99,,2013-01-28 19:52:00,
2013-01-28 13:02:00,27.0,24.0,-100.00,WSW,246,9.0,12.0,88,0.00,,,-99.99,,2013-01-28 20:02:00,
2013-01-28 13:11:00,27.0,24.0,-100.00,WSW,246,9.0,12.0,88,0.00,,,-99.99,,2013-01-28 20:11:00,
2013-01-28 13:21:00,27.0,24.0,-100.00,WSW,246,9.0,12.0,88,0.00,,,-99.99,,2013-01-28 20:21:00,
2013-01-28 13:43:00,27.0,22.0,-100.00,SW,223,12.0,14.0,83,0.00,,,-99.99,,2013-01-28 20:43:00,
2013-01-28 13:52:00,27.0,22.0,-100.00,SW,223,12.0,15.0,83,0.00,,,-99.99,,2013-01-28 20:52:00,
2013-01-28 14:02:00,27.0,22.0,-100.00,SW,223,12.0,15.0,83,0.00,,,-99.99,,2013-01-28 21:02:00,
2013-01-28 14:11:00,27.0,22.0,-100.00,SW,223,12.0,15.0,83,0.00,,,-99.99,,2013-01-28 21:11:00,
2013-01-28 14:22:00,26.0,22.0,-100.00,WSW,237,13.0,14.0,85,0.00,,,-99.99,,2013-01-28 21:22:00,
2013-01-28 14:33:00,26.0,22.0,-100.00,WSW,237,13.0,14.0,85,0.00,,,-99.99,,2013-01-28 21:33:00,
2013-01-28 14:42:00,27.0,22.0,-100.00,WSW,237,10.0,11.0,82,0.00,,,-99.99,,2013-01-28 21:42:00,
2013-01-28 14:53:00,27.0,22.0,-100.00,SW,219,9.0,11.0,84,0.00,,,-99.99,,2013-01-28 21:53:00,
2013-01-28 15:01:00,27.0,22.0,-100.00,SW,219,9.0,11.0,84,0.00,,,-99.99,,2013-01-28 22:01:00,
2013-01-28 15:11:00,28.0,24.0,-100.00,WSW,246,10.0,11.0,84,0.00,,,-99.99,,2013-01-28 22:11:00,
2013-01-28 15:22:00,28.0,24.0,-100.00,WSW,246,10.0,11.0,84,0.00,,,-99.99,,2013-01-28 22:22:00,
2013-01-28 15:32:00,28.0,24.0,-100.00,WSW,246,10.0,11.0,84,0.00,,,-99.99,,2013-01-28 22:32:00,
2013-01-28 15:42:00,28.0,23.0,-100.00,SW,220,8.0,10.0,82,0.00,,,-99.99,,2013-01-28 22:42:00,
2013-01-28 15:52:00,28.0,23.0,-100.00,SSW,209,8.0,10.0,83,0.00,,,-99.99,,2013-01-28 22:52:00,
2013-01-28 16:01:00,28.0,23.0,-100.00,SSW,209,8.0,10.0,83,0.00,,,-99.99,,2013-01-28 23:01:00,
2013-01-28 16:11:00,29.0,24.0,-100.00,SW,217,6.0,8.0,82,0.00,,,-99.99,,2013-01-28 23:11:00,
2013-01-28 16:22:00,28.0,24.0,-100.00,SW,219,5.0,6.0,85,0.00,,,-99.99,,2013-01-28 23:22:00,
2013-01-28 16:32:00,28.0,24.0,-100.00,SW,219,5.0,6.0,85,0.00,,,-99.99,,2013-01-28 23:32:00,
2013-01-28 16:42:00,28.0,25.0,-100.00,SSW,198,5.0,6.0,86,0.00,,,-99.99,,2013-01-28 23:42:00,
2013-01-28 16:53:00,28.0,25.0,-100.00,SSW,198,5.0,6.0,86,0.00,,,-99.99,,2013-01-28 23:53:00,
2013-01-28 17:01:00,28.0,25.0,-100.00,SSW,198,5.0,6.0,86,0.00,,,-99.99,,2013-01-29 00:01:00,
2013-01-28 17:11:00,28.0,25.0,-100.00,South,181,4.0,6.0,88,0.00,,,-99.99,,2013-01-29 00:11:00,
2013-01-28 17:22:00,29.0,25.0,-100.00,SSW,212,11.0,13.0,87,0.00,,,-99.99,,2013-01-29 00:22:00,
2013-01-28 17:32:00,29.0,25.0,-100.00,SSW,212,11.0,13.0,87,0.00,,,-99.99,,2013-01-29 00:32:00,
2013-01-28 17:41:00,27.0,24.0,-100.00,SSW,206,8.0,9.0,89,0.00,,,-99.99,,2013-01-29 00:41:00,
2013-01-28 17:52:00,27.0,24.0,-100.00,SSW,206,8.0,9.0,89,0.00,,,-99.99,,2013-01-29 00:52:00,
2013-01-28 18:01:00,27.0,24.0,-100.00,SSW,206,8.0,9.0,89,0.00,,,-99.99,,2013-01-29 01:01:00,
2013-01-28 18:11:00,27.0,25.0,-100.00,SSW,195,7.0,8.0,92,0.00,,,-99.99,,2013-01-29 01:11:00,
2013-01-28 18:22:00,27.0,25.0,-100.00,SSW,195,7.0,8.0,92,0.00,,,-99.99,,2013-01-29 01:22:00,
2013-01-28 18:32:00,27.0,25.0,-100.00,SSW,195,7.0,8.0,92,0.00,,,-99.99,,2013-01-29 01:32:00,
2013-01-28 18:42:00,28.0,26.0,-100.00,SSW,195,8.0,9.0,91,0.00,,,-99.99,,2013-01-29 01:42:00,
2013-01-28 18:52:00,28.0,26.0,-100.00,SSW,192,5.0,7.0,91,0.00,,,-99.99,,2013-01-29 01:52:00,
2013-01-28 19:02:00,28.0,26.0,-100.00,SSW,192,5.0,7.0,91,0.00,,,-99.99,,2013-01-29 02:02:00,
2013-01-28 19:11:00,29.0,26.0,-100.00,SSW,199,8.0,10.0,88,0.00,,,-99.99,,2013-01-29 02:11:00,
2013-01-28 19:21:00,29.0,26.0,-100.00,SSW,199,8.0,10.0,88,0.00,,,-99.99,,2013-01-29 02:21:00,
2013-01-28 19:32:00,29.0,26.0,-100.00,SSW,199,8.0,10.0,88,0.00,,,-99.99,,2013-01-29 02:32:00,
2013-01-28 19:41:00,29.0,26.0,-100.00,SSW,195,8.0,9.0,88,0.00,,,-99.99,,2013-01-29 02:41:00,
2013-01-28 19:53:00,29.0,25.0,-100.00,South,169,9.0,11.0,87,0.08,,,-99.99,,2013-01-29 02:53:00,
2013-01-28 20:02:00,29.0,25.0,-100.00,South,169,9.0,11.0,87,0.08,,,-99.99,,2013-01-29 03:02:00,
2013-01-28 20:11:00,29.0,26.0,-100.00,South,191,9.0,11.0,90,0.00,,,-99.99,,2013-01-29 03:11:00,
2013-01-28 20:21:00,29.0,26.0,-100.00,South,191,9.0,11.0,90,0.00,,,-99.99,,2013-01-29 03:21:00,
2013-01-28 20:31:00,29.0,26.0,-100.00,South,191,9.0,11.0,90,0.00,,,-99.99,,2013-01-29 03:31:00,
2013-01-28 20:41:00,29.0,26.0,-100.00,South,191,9.0,11.0,90,0.00,,,-99.99,,2013-01-29 03:41:00,
2013-01-28 20:53:00,28.0,26.0,-100.00,SSW,193,10.0,13.0,93,0.00,,,-99.99,,2013-01-29 03:53:00,
2013-01-28 21:02:00,28.0,26.0,-100.00,SSW,193,10.0,13.0,93,0.00,,,-99.99,,2013-01-29 04:02:00,
2013-01-28 21:11:00,26.0,24.0,-100.00,SSE,162,13.0,15.0,90,0.00,,,-99.99,,2013-01-29 04:11:00,
2013-01-28 21:21:00,26.0,24.0,-100.00,SSE,162,13.0,15.0,90,0.00,,,-99.99,,2013-01-29 04:21:00,
2013-01-28 21:31:00,26.0,24.0,-100.00,SSE,162,13.0,15.0,90,0.00,,,-99.99,,2013-01-29 04:31:00,
2013-01-28 21:41:00,26.0,24.0,-100.00,South,176,12.0,15.0,91,0.00,,,-99.99,,2013-01-29 04:41:00,
2013-01-28 21:52:00,28.0,25.0,-100.00,SSW,200,11.0,14.0,88,0.00,,,-99.99,,2013-01-29 04:52:00,
2013-01-28 22:03:00,28.0,25.0,-100.00,SSW,200,11.0,14.0,88,0.00,,,-99.99,,2013-01-29 05:03:00,
2013-01-28 22:12:00,29.0,25.0,-100.00,SSW,200,9.0,12.0,87,0.00,,,-99.99,,2013-01-29 05:12:00,
2013-01-28 22:21:00,29.0,25.0,-100.00,SSW,198,11.0,15.0,86,0.00,,,-99.99,,2013-01-29 05:21:00,
2013-01-28 22:32:00,29.0,25.0,-100.00,SSW,198,11.0,15.0,86,0.00,,,-99.99,,2013-01-29 05:32:00,
2013-01-28 22:42:00,28.0,25.0,-100.00,SSW,203,12.0,15.0,86,0.00,,,-99.99,,2013-01-29 05:42:00,
2013-01-28 22:52:00,28.0,25.0,-100.00,SSW,210,13.0,17.0,87,0.04,,,-99.99,,2013-01-29 05:52:00,
2013-01-28 23:01:00,28.0,25.0,-100.00,SSW,210,13.0,17.0,87,0.04,,,-99.99,,2013-01-29 06:01:00,
2013-01-28 23:11:00,28.0,25.0,-100.00,SSW,196,13.0,16.0,88,0.00,,,-99.99,,2013-01-29 06:11:00,
2013-01-28 23:21:00,28.0,25.0,-100.00,SSW,198,13.0,15.0,89,0.00,,,-99.99,,2013-01-29 06:21:00,
2013-01-28 23:31:00,28.0,25.0,-100.00,SSW,198,13.0,15.0,89,0.00,,,-99.99,,2013-01-29 06:31:00,
2013-01-28 23:41:00,28.0,26.0,-100.00,SSW,193,13.0,17.0,90,0.00,,,-99.99,,2013-01-29 06:41:00,
2013-01-28 23:52:00,28.0,26.0,-100.00,SSW,193,13.0,17.0,90,0.00,,,-99.99,,2013-01-29 06:52:00,